Time;durP1;ratioP1;P1;durP2;ratioP2;P2;SDS_P1;SDS_P2;PMS_P1;PMS_P2;Temp;Humidity;BMP_temperature;BMP_pressure;BME280_temperature;BME280_humidity;BME280_pressure;Samples;Min_cycle;Max_cycle;Signal;HPM_P1;HPM_P2
2024/02/09 00:00:48;;;;;;;33.57;18.60;;;3.00;99.90;;;;;;4214651;28;20329;-60
2024/02/09 00:02:49;;;;;;;36.10;19.33;;;3.20;99.90;;;;;;4212967;28;20276;-63
2024/02/09 00:04:50;;;;;;;36.37;20.67;;;3.10;99.90;;;;;;4214024;28;20321;-61
2024/02/09 00:06:52;;;;;;;42.67;23.27;;;3.10;99.90;;;;;;4212870;28;20683;-59
2024/02/09 00:08:53;;;;;;;39.77;21.73;;;3.00;99.90;;;;;;4214058;28;20786;-61
2024/02/09 00:10:54;;;;;;;45.13;23.87;;;3.00;99.90;;;;;;4212915;28;20501;-60
2024/02/09 00:12:55;;;;;;;49.33;24.50;;;2.90;99.90;;;;;;4213978;28;20353;-60
2024/02/09 00:14:58;;;;;;;48.57;23.27;;;2.80;99.90;;;;;;4212794;28;20302;-60
2024/02/09 00:16:59;;;;;;;48.73;23.90;;;2.70;99.90;;;;;;4213920;28;20310;-61
2024/02/09 00:19:01;;;;;;;48.43;24.97;;;2.60;99.90;;;;;;4212835;28;20375;-59
2024/02/09 00:21:02;;;;;;;48.97;24.73;;;2.50;99.90;;;;;;4213043;28;20277;-59
2024/02/09 00:23:03;;;;;;;53.57;26.50;;;2.50;99.90;;;;;;4213187;28;20357;-60
2024/02/09 00:25:08;;;;;;;49.20;24.33;;;2.50;99.90;;;;;;4212807;28;20790;-60
2024/02/09 00:27:11;;;;;;;49.20;25.90;;;2.60;99.90;;;;;;4213315;28;20273;-58
2024/02/09 00:29:12;;;;;;;51.57;26.03;;;2.60;99.90;;;;;;4212280;28;20261;-60
2024/02/09 00:31:13;;;;;;;47.97;25.60;;;2.60;99.90;;;;;;4214063;28;20290;-59
2024/02/09 00:33:15;;;;;;;51.67;25.87;;;2.60;99.90;;;;;;4212332;28;20288;-59
2024/02/09 00:35:17;;;;;;;53.40;26.83;;;2.60;99.90;;;;;;4213713;28;20873;-60
2024/02/09 00:37:21;;;;;;;54.27;27.13;;;2.60;99.90;;;;;;4212125;28;20285;-59
2024/02/09 00:39:22;;;;;;;48.53;25.63;;;2.60;99.90;;;;;;4213791;28;20342;-59
2024/02/09 00:41:24;;;;;;;46.27;24.83;;;2.60;99.90;;;;;;4212547;28;20801;-60
2024/02/09 00:43:27;;;;;;;52.13;25.87;;;2.70;99.90;;;;;;4213197;28;20264;-61
2024/02/09 00:45:36;;;;;;;49.63;25.30;;;2.70;99.90;;;;;;4212377;28;20265;-60
2024/02/09 00:47:37;;;;;;;48.10;26.47;;;2.80;99.90;;;;;;4213770;28;20821;-59
2024/02/09 00:49:42;;;;;;;50.00;26.97;;;2.70;99.90;;;;;;4212187;28;20276;-61
2024/02/09 00:51:44;;;;;;;46.93;24.03;;;2.80;99.90;;;;;;4213125;28;20272;-59
2024/02/09 00:53:48;;;;;;;46.23;25.13;;;2.80;99.90;;;;;;4212012;28;20277;-60
2024/02/09 00:55:50;;;;;;;46.00;24.53;;;2.80;99.90;;;;;;4213044;28;20304;-63
2024/02/09 00:57:51;;;;;;;45.67;24.20;;;2.80;99.90;;;;;;4212094;28;20264;-62
2024/02/09 00:59:52;;;;;;;43.73;22.73;;;2.80;99.90;;;;;;4212623;28;20310;-58
2024/02/09 01:01:53;;;;;;;43.20;23.27;;;2.80;99.90;;;;;;4213058;28;20269;-62
2024/02/09 01:03:55;;;;;;;47.43;24.50;;;2.80;99.90;;;;;;4212167;28;20710;-62
2024/02/09 01:05:59;;;;;;;47.20;24.80;;;2.80;99.90;;;;;;4212836;28;20704;-59
2024/02/09 01:08:01;;;;;;;47.63;23.57;;;2.80;99.90;;;;;;4211782;28;20265;-58
2024/02/09 01:10:05;;;;;;;48.53;25.17;;;2.80;99.90;;;;;;4212991;28;20257;-59
2024/02/09 02:45:18;;;;;;;37.60;20.97;;;2.90;99.90;;;;;;4211265;28;20668;-63
2024/02/09 02:47:19;;;;;;;34.33;19.40;;;2.90;99.90;;;;;;4210481;28;20270;-63
2024/02/09 03:05:38;;;;;;;44.77;22.23;;;2.60;99.90;;;;;;4211483;28;20334;-61
2024/02/09 03:07:43;;;;;;;46.10;24.07;;;2.40;99.90;;;;;;4210541;28;20671;-62
2024/02/09 03:09:44;;;;;;;44.97;24.40;;;2.20;99.90;;;;;;4211177;28;20299;-64
2024/02/09 03:11:45;;;;;;;43.80;23.03;;;2.20;99.90;;;;;;4210227;28;20341;-59
2024/02/09 03:13:49;;;;;;;40.20;23.83;;;2.20;99.90;;;;;;4210789;28;20285;-63
2024/02/09 03:15:52;;;;;;;43.10;24.20;;;2.20;99.90;;;;;;4210423;28;20268;-64
2024/02/09 03:17:53;;;;;;;37.50;22.50;;;2.20;99.90;;;;;;4210766;28;20260;-60
2024/02/09 03:20:00;;;;;;;41.40;23.27;;;2.30;99.90;;;;;;4211136;28;20280;-62
2024/02/09 03:22:03;;;;;;;44.23;23.27;;;2.30;99.90;;;;;;4209891;28;20284;-63
2024/02/09 03:24:05;;;;;;;38.93;22.23;;;2.40;99.90;;;;;;4210945;28;20626;-63
2024/02/09 03:26:06;;;;;;;42.73;21.83;;;2.40;99.90;;;;;;4210090;28;20257;-64
2024/02/09 03:28:08;;;;;;;42.50;22.07;;;2.40;99.90;;;;;;4211254;28;20610;-61
2024/02/09 03:30:10;;;;;;;44.43;23.70;;;2.40;99.90;;;;;;4210054;28;20330;-62
2024/02/09 03:32:13;;;;;;;45.73;24.10;;;2.50;99.90;;;;;;4211449;28;20269;-62
2024/02/09 03:34:16;;;;;;;48.73;25.43;;;2.50;99.90;;;;;;4209484;28;20284;-63
2024/02/09 03:36:20;;;;;;;44.00;23.47;;;2.50;99.90;;;;;;4211327;28;20265;-63
2024/02/09 03:38:21;;;;;;;43.33;23.07;;;2.50;99.90;;;;;;4209739;28;20318;-62
2024/02/09 03:40:22;;;;;;;45.17;22.90;;;2.50;99.90;;;;;;4211157;28;20318;-63
2024/02/09 03:42:25;;;;;;;46.07;23.80;;;2.60;99.90;;;;;;4209531;28;21097;-62
2024/02/09 03:44:26;;;;;;;43.23;22.30;;;2.60;99.90;;;;;;4211516;28;20333;-63
2024/02/09 03:46:27;;;;;;;42.50;22.53;;;2.70;99.90;;;;;;4210224;28;20326;-63
2024/02/09 03:48:29;;;;;;;49.73;25.83;;;2.60;99.90;;;;;;4210767;28;20281;-63
2024/02/09 03:50:34;;;;;;;41.77;22.10;;;2.70;99.90;;;;;;4210202;28;20253;-63
2024/02/09 03:52:35;;;;;;;48.80;22.67;;;2.70;99.90;;;;;;4210670;28;21167;-63
2024/02/09 03:54:36;;;;;;;39.97;20.90;;;2.70;99.90;;;;;;4210492;28;20654;-61
2024/02/09 03:56:37;;;;;;;37.67;20.53;;;2.70;99.90;;;;;;4210366;28;20265;-63
2024/02/09 03:58:42;;;;;;;33.50;18.80;;;2.70;99.90;;;;;;4210482;28;20306;-62
2024/02/09 04:00:44;;;;;;;30.63;17.70;;;2.70;99.90;;;;;;4209474;28;20265;-62
2024/02/09 04:02:45;;;;;;;30.63;17.10;;;2.70;99.90;;;;;;4210645;28;20326;-60
2024/02/09 04:04:47;;;;;;;31.77;17.90;;;2.70;99.90;;;;;;4209890;28;20273;-59
2024/02/09 04:06:48;;;;;;;39.60;19.53;;;2.70;99.90;;;;;;4210943;28;20660;-61
2024/02/09 04:08:49;;;;;;;39.27;19.07;;;2.60;99.90;;;;;;4209549;28;20269;-60
2024/02/09 04:10:51;;;;;;;44.73;21.33;;;2.60;99.90;;;;;;4210644;28;20265;-61
2024/02/09 04:12:53;;;;;;;40.13;21.60;;;2.50;99.90;;;;;;4209878;28;20296;-60
2024/02/09 04:14:55;;;;;;;38.70;20.47;;;2.30;99.90;;;;;;4214167;28;20268;-62
2024/02/09 04:16:57;;;;;;;38.87;21.23;;;2.20;99.90;;;;;;4212402;28;20276;-57
2024/02/09 04:18:59;;;;;;;43.93;21.17;;;2.00;99.90;;;;;;4214146;28;20265;-62
2024/02/09 04:21:00;;;;;;;51.13;22.90;;;1.90;99.90;;;;;;4212739;28;20269;-61
2024/02/09 04:23:01;;;;;;;45.10;23.13;;;1.90;99.90;;;;;;4208623;28;20337;-62
2024/02/09 04:25:03;;;;;;;44.57;22.77;;;1.80;99.90;;;;;;4212784;28;20314;-62
2024/02/09 04:27:05;;;;;;;44.47;25.10;;;1.80;99.90;;;;;;4213028;28;20829;-62
2024/02/09 04:29:07;;;;;;;58.23;28.13;;;1.90;99.90;;;;;;4205990;28;20716;-62
2024/02/09 04:31:08;;;;;;;53.50;27.27;;;1.90;99.90;;;;;;4213208;28;20268;-64
2024/02/09 04:33:11;;;;;;;52.27;28.00;;;1.90;99.90;;;;;;4212841;28;20836;-62
2024/02/09 04:35:13;;;;;;;52.93;28.30;;;1.90;99.90;;;;;;4212746;28;20272;-64
2024/02/09 04:37:15;;;;;;;50.20;27.53;;;1.90;99.90;;;;;;4213577;28;20708;-61
2024/02/09 04:39:16;;;;;;;48.53;26.17;;;1.90;99.90;;;;;;4212064;28;20758;-62
2024/02/09 04:41:18;;;;;;;51.83;27.00;;;2.00;99.90;;;;;;4209075;28;20275;-62
2024/02/09 04:43:20;;;;;;;46.67;25.43;;;2.00;99.90;;;;;;4204622;28;20687;-61
2024/02/09 04:45:22;;;;;;;50.33;27.00;;;2.00;99.90;;;;;;4213218;28;20287;-62
2024/02/09 04:47:23;;;;;;;53.17;27.50;;;2.00;99.90;;;;;;4186572;28;20270;-59
2024/02/09 04:49:25;;;;;;;53.97;27.83;;;2.00;99.90;;;;;;4196619;28;20314;-63
2024/02/09 04:51:27;;;;;;;48.23;26.00;;;2.00;99.90;;;;;;4195396;28;20350;-63
2024/02/09 04:53:28;;;;;;;49.17;26.80;;;2.00;99.90;;;;;;4205868;28;20643;-62
2024/02/09 04:55:29;;;;;;;53.33;26.33;;;2.00;99.90;;;;;;4212494;28;20647;-62
2024/02/09 04:57:31;;;;;;;41.83;22.53;;;2.00;99.90;;;;;;4212884;28;20326;-63
2024/02/09 04:59:33;;;;;;;46.87;24.30;;;2.10;99.90;;;;;;4210718;28;20757;-62
2024/02/09 05:01:38;;;;;;;44.87;25.00;;;2.10;99.90;;;;;;4211777;28;20361;-59
2024/02/09 05:03:40;;;;;;;50.33;25.10;;;2.10;99.90;;;;;;4212199;28;20386;-62
2024/02/09 05:05:42;;;;;;;41.97;23.67;;;2.00;99.90;;;;;;4212037;28;20269;-62
2024/02/09 05:07:44;;;;;;;40.83;23.20;;;2.00;99.90;;;;;;4210339;28;20667;-64
2024/02/09 05:09:45;;;;;;;50.50;27.30;;;2.00;99.90;;;;;;4211817;28;20341;-62
2024/02/09 05:11:47;;;;;;;49.47;25.90;;;2.00;99.90;;;;;;4212283;28;20337;-62
2024/02/09 05:13:49;;;;;;;43.07;24.00;;;2.00;99.90;;;;;;4209974;28;20330;-62
2024/02/09 05:15:50;;;;;;;43.27;25.17;;;2.00;99.90;;;;;;4212189;28;20295;-60
2024/02/09 05:17:52;;;;;;;47.20;24.53;;;1.90;99.90;;;;;;4211974;28;20273;-63
2024/02/09 05:19:57;;;;;;;45.97;25.07;;;2.00;99.90;;;;;;4212167;28;20333;-64
2024/02/09 05:21:58;;;;;;;42.40;22.50;;;2.00;99.90;;;;;;4211262;28;20277;-63
2024/02/09 05:24:01;;;;;;;45.03;23.30;;;2.00;99.90;;;;;;4211924;28;20310;-64
2024/02/09 05:26:03;;;;;;;42.53;24.40;;;2.00;99.90;;;;;;4211187;28;20322;-64
2024/02/09 05:28:05;;;;;;;45.13;24.23;;;2.10;99.90;;;;;;4212491;28;20405;-62
2024/02/09 05:30:08;;;;;;;47.53;24.87;;;2.10;99.90;;;;;;4211150;28;20307;-63
2024/02/09 05:32:10;;;;;;;45.70;24.73;;;2.10;99.90;;;;;;4212624;28;20276;-62
2024/02/09 05:34:11;;;;;;;41.07;24.37;;;2.20;99.90;;;;;;4211248;28;20354;-64
2024/02/09 05:36:19;;;;;;;45.90;24.63;;;2.20;99.90;;;;;;4211872;28;20656;-63
2024/02/09 05:38:20;;;;;;;37.93;21.00;;;2.20;99.90;;;;;;4211377;28;20314;-64
2024/02/09 05:40:21;;;;;;;43.77;23.23;;;2.30;99.90;;;;;;4211910;28;20314;-61
2024/02/09 05:42:23;;;;;;;48.43;23.77;;;2.40;99.90;;;;;;4211125;28;20658;-64
2024/02/09 05:44:24;;;;;;;44.73;24.20;;;2.40;99.90;;;;;;4210161;28;20265;-64
2024/02/09 05:46:25;;;;;;;46.73;22.67;;;2.50;99.90;;;;;;4210844;28;20257;-64
2024/02/09 05:48:26;;;;;;;44.67;23.50;;;2.50;99.90;;;;;;4211050;28;20257;-63
2024/02/09 05:50:28;;;;;;;43.00;23.23;;;2.50;99.90;;;;;;4211832;28;20405;-62
2024/02/09 05:52:29;;;;;;;46.17;24.53;;;2.50;99.90;;;;;;4210979;28;20281;-62
2024/02/09 05:54:31;;;;;;;46.20;24.30;;;2.60;99.90;;;;;;4211874;28;20362;-63
2024/02/09 05:56:32;;;;;;;39.13;22.77;;;2.50;99.90;;;;;;4211007;28;20284;-64
2024/02/09 05:58:34;;;;;;;42.33;24.67;;;2.50;99.90;;;;;;4211891;28;20281;-62
2024/02/09 06:00:35;;;;;;;40.70;22.37;;;2.50;99.90;;;;;;4210259;28;20273;-59
2024/02/09 06:02:37;;;;;;;42.67;23.17;;;2.50;99.90;;;;;;4211423;28;20330;-60
2024/02/09 06:04:38;;;;;;;39.53;23.17;;;2.50;99.90;;;;;;4210192;28;20276;-60
2024/02/09 06:06:45;;;;;;;45.47;24.13;;;2.50;99.90;;;;;;4211704;28;20326;-61
2024/02/09 06:08:47;;;;;;;52.70;25.30;;;2.60;99.90;;;;;;4210473;28;20257;-62
2024/02/09 06:10:48;;;;;;;49.07;24.73;;;2.60;99.90;;;;;;4210447;28;20268;-60
2024/02/09 06:15:01;;;;;;;;;;;2.60;99.90;;;;;;4291810;23;20323;-60
2024/02/09 06:17:03;;;;;;;39.10;19.90;;;2.50;99.90;;;;;;4144360;28;19995;-61
2024/02/09 06:19:04;;;;;;;43.57;22.93;;;2.60;99.90;;;;;;4145610;28;20291;-61
2024/02/09 06:21:06;;;;;;;44.30;22.53;;;2.60;99.90;;;;;;4144190;28;20750;-59
2024/02/09 06:23:07;;;;;;;39.27;21.27;;;2.70;99.90;;;;;;4145686;28;20268;-61
2024/02/09 06:25:08;;;;;;;42.60;24.90;;;2.70;99.90;;;;;;4144345;28;20743;-62
2024/02/09 06:27:09;;;;;;;36.40;20.03;;;2.70;99.90;;;;;;4145144;28;20816;-61
2024/02/09 06:29:10;;;;;;;43.73;22.53;;;2.80;99.90;;;;;;4144393;28;20793;-62
2024/02/09 06:31:21;;;;;;;42.70;22.27;;;2.80;99.90;;;;;;4144938;28;20267;-58
2024/02/09 06:33:22;;;;;;;;;;;2.80;99.90;;;;;;4145085;28;20287;-61
2024/02/09 06:35:23;;;;;;;;;;;2.90;99.90;;;;;;4144877;28;19931;-61
2024/02/09 06:37:24;;;;;;;;;;;2.90;99.90;;;;;;4145659;28;20349;-62
2024/02/09 06:39:25;;;;;;;33.10;18.97;;;2.90;99.90;;;;;;4144417;28;19911;-55
2024/02/09 06:41:27;;;;;;;42.40;21.97;;;2.90;99.90;;;;;;4145353;28;20026;-59
2024/02/09 06:43:28;;;;;;;38.30;21.50;;;2.90;99.90;;;;;;4142696;28;20325;-61
2024/02/09 06:45:30;;;;;;;38.03;21.50;;;2.90;99.90;;;;;;4145826;28;21683;-61
2024/02/09 06:47:31;;;;;;;37.87;21.43;;;3.00;99.90;;;;;;4143768;28;20264;-61
2024/02/09 06:49:34;;;;;;;35.73;20.67;;;3.00;99.90;;;;;;4145193;28;20275;-64
2024/02/09 06:51:36;;;;;;;36.40;21.00;;;3.10;99.90;;;;;;4144067;28;20698;-61
2024/02/09 06:53:37;;;;;;;42.47;23.93;;;3.20;99.90;;;;;;4145458;28;20283;-61
2024/02/09 06:55:39;;;;;;;37.87;21.60;;;3.30;99.90;;;;;;4144120;28;20322;-61
2024/02/09 06:57:44;;;;;;;40.27;22.33;;;3.30;99.90;;;;;;4145274;28;20260;-62
2024/02/09 06:59:45;;;;;;;46.83;24.63;;;3.30;99.90;;;;;;4143810;28;20255;-61
2024/02/09 07:01:46;;;;;;;59.00;29.03;;;3.40;99.90;;;;;;4145110;28;20675;-59
2024/02/09 07:03:49;;;;;;;49.57;24.57;;;3.50;99.90;;;;;;4144173;28;20271;-60
2024/02/09 07:05:53;;;;;;;46.33;23.20;;;3.60;99.90;;;;;;4144716;28;20284;-61
2024/02/09 07:07:54;;;;;;;34.00;18.30;;;3.60;99.90;;;;;;4144499;28;20339;-61
2024/02/09 07:09:55;;;;;;;40.00;21.60;;;3.60;99.90;;;;;;4144515;28;20662;-61
2024/02/09 07:11:57;;;;;;;37.43;19.97;;;3.60;99.90;;;;;;4144562;28;20306;-59
2024/02/09 07:13:58;;;;;;;34.77;18.07;;;3.70;99.90;;;;;;4143698;28;20311;-62
2024/02/09 07:16:03;;;;;;;32.27;17.80;;;3.70;99.90;;;;;;4145310;28;20401;-60
2024/02/09 07:18:04;;;;;;;33.87;17.90;;;3.70;99.90;;;;;;4143925;28;20777;-63
2024/02/09 07:20:06;;;;;;;37.40;19.57;;;3.80;99.90;;;;;;4145065;28;20271;-62
2024/02/09 07:22:08;;;;;;;26.43;17.63;;;3.80;99.90;;;;;;4144014;28;20806;-63
2024/02/09 07:24:09;;;;;;;27.93;17.40;;;3.80;99.90;;;;;;4145011;28;20264;-62
2024/02/09 07:26:10;;;;;;;35.90;18.07;;;3.80;99.90;;;;;;4143846;28;20322;-63
2024/02/09 07:28:13;;;;;;;42.50;21.63;;;3.90;99.90;;;;;;4145166;28;20272;-62
2024/02/09 07:30:17;;;;;;;44.27;22.50;;;3.90;99.90;;;;;;4143695;28;20829;-64
2024/02/09 07:32:18;;;;;;;41.93;21.93;;;3.90;99.90;;;;;;4144818;28;20279;-64
2024/02/09 07:34:19;;;;;;;41.33;21.63;;;3.90;99.90;;;;;;4143676;28;20381;-63
2024/02/09 07:36:21;;;;;;;41.20;22.40;;;3.90;99.90;;;;;;4144540;28;20361;-63
2024/02/09 07:38:22;;;;;;;42.03;21.70;;;3.90;99.90;;;;;;4143822;28;20314;-60
2024/02/09 07:40:24;;;;;;;37.07;19.97;;;4.00;99.90;;;;;;4144478;28;20811;-64
2024/02/09 07:42:25;;;;;;;36.23;20.93;;;4.10;99.90;;;;;;4144181;28;20326;-59
2024/02/09 07:44:26;;;;;;;41.80;21.13;;;4.10;99.90;;;;;;4144302;28;20777;-62
2024/02/09 07:46:30;;;;;;;34.07;19.23;;;4.20;99.90;;;;;;4144682;28;20263;-62
2024/02/09 07:48:32;;;;;;;36.77;20.77;;;4.20;99.90;;;;;;4145964;28;20279;-64
2024/02/09 07:50:41;;;;;;;37.13;21.07;;;4.30;99.90;;;;;;4147760;28;20349;-61
2024/02/09 07:52:42;;;;;;;31.77;18.27;;;4.30;99.90;;;;;;4146688;28;20271;-61
2024/02/09 07:54:45;;;;;;;32.37;18.37;;;4.30;99.90;;;;;;4147916;28;20295;-61
2024/02/09 07:56:46;;;;;;;31.23;17.33;;;4.30;99.90;;;;;;4146849;28;20759;-63
2024/02/09 07:58:47;;;;;;;28.90;16.60;;;4.30;99.90;;;;;;4147858;28;20280;-63
2024/02/09 08:00:48;;;;;;;31.20;18.07;;;4.30;99.90;;;;;;4146427;28;20309;-60
2024/02/09 08:02:50;;;;;;;36.53;18.33;;;4.40;99.90;;;;;;4147732;28;21020;-59
2024/02/09 08:04:51;;;;;;;36.67;18.47;;;4.40;99.90;;;;;;4146635;28;20275;-60
2024/02/09 08:06:52;;;;;;;38.23;19.13;;;4.40;99.90;;;;;;4147922;28;20275;-61
2024/02/09 08:08:56;;;;;;;34.53;18.80;;;4.40;99.90;;;;;;4146434;28;20279;-60
2024/02/09 08:10:57;;;;;;;35.47;19.70;;;4.50;99.90;;;;;;4147448;28;20322;-61
2024/02/09 08:12:58;;;;;;;34.40;20.27;;;4.60;99.90;;;;;;4146785;28;20260;-59
2024/02/09 08:15:00;;;;;;;30.80;16.53;;;4.80;99.90;;;;;;4147157;28;20295;-63
2024/02/09 08:17:01;;;;;;;30.43;17.13;;;4.80;99.90;;;;;;4146834;28;20234;-61
2024/02/09 08:19:02;;;;;;;31.13;17.50;;;4.90;99.90;;;;;;4146947;28;20026;-61
2024/02/09 08:21:04;;;;;;;31.43;18.50;;;4.90;99.90;;;;;;4147287;28;20369;-59
2024/02/09 08:23:06;;;;;;;30.53;17.87;;;5.10;99.90;;;;;;4146671;28;20115;-59
2024/02/09 08:25:08;;;;;;;28.50;16.57;;;5.20;99.90;;;;;;4147543;28;20587;-59
2024/02/09 08:27:09;;;;;;;31.67;18.33;;;5.20;99.90;;;;;;4146580;28;20041;-61
2024/02/09 08:29:10;;;;;;;29.43;18.03;;;5.20;99.90;;;;;;4147359;28;20127;-60
2024/02/09 08:31:15;;;;;;;29.10;16.93;;;5.30;99.90;;;;;;4146089;28;20104;-64
2024/02/09 08:33:17;;;;;;;31.67;17.33;;;5.40;99.90;;;;;;4147696;28;20357;-60
2024/02/09 08:35:19;;;;;;;33.87;18.73;;;5.50;99.90;;;;;;4146191;28;20101;-59
2024/02/09 08:37:21;;;;;;;32.17;18.50;;;5.50;99.90;;;;;;4147567;28;20425;-61
2024/02/09 08:39:23;;;;;;;33.23;17.97;;;5.50;99.90;;;;;;4146417;28;20498;-63
2024/02/09 08:41:24;;;;;;;33.53;18.93;;;5.50;99.90;;;;;;4147514;28;20045;-60
2024/02/09 08:43:26;;;;;;;27.93;17.03;;;5.50;99.90;;;;;;4146029;28;20359;-61
2024/02/09 08:45:27;;;;;;;36.07;19.00;;;5.50;99.90;;;;;;4146842;28;20042;-63
2024/02/09 08:47:34;;;;;;;31.43;18.27;;;5.50;99.90;;;;;;4146290;28;20030;-63
2024/02/09 08:49:35;;;;;;;33.07;18.23;;;5.50;99.90;;;;;;4146567;28;20473;-61
2024/02/09 08:51:37;;;;;;;44.30;26.07;;;5.70;99.90;;;;;;4146180;28;20518;-57
2024/02/09 08:53:38;;;;;;;45.30;25.70;;;5.80;99.90;;;;;;4146114;28;20762;-64
2024/02/09 08:55:39;;;;;;;38.37;22.40;;;5.90;99.90;;;;;;4146575;28;20077;-58
2024/02/09 08:57:44;;;;;;;32.97;19.03;;;5.90;99.90;;;;;;4145702;28;20029;-61
2024/02/09 08:59:45;;;;;;;29.77;16.83;;;6.00;99.90;;;;;;4146397;28;20029;-60
2024/02/09 09:01:46;;;;;;;27.90;16.53;;;6.00;99.90;;;;;;4145571;28;20091;-59
2024/02/09 09:03:47;;;;;;;31.87;15.60;;;6.10;99.90;;;;;;4147048;28;20030;-61
2024/02/09 09:05:48;;;;;;;28.17;16.80;;;6.20;99.90;;;;;;4145872;28;20022;-60
2024/02/09 09:07:50;;;;;;;28.40;16.60;;;6.30;99.90;;;;;;4147098;28;20468;-62
2024/02/09 09:09:52;;;;;;;31.03;16.53;;;6.30;99.90;;;;;;4145600;28;20022;-59
2024/02/09 09:11:56;;;;;;;29.47;17.47;;;6.40;99.90;;;;;;4146966;28;20088;-59
2024/02/09 09:13:57;;;;;;;27.20;16.30;;;6.40;99.90;;;;;;4145419;28;20042;-62
2024/02/09 09:15:58;;;;;;;30.93;17.63;;;6.40;99.90;;;;;;4147193;28;20030;-61
2024/02/09 09:18:01;;;;;;;30.17;17.17;;;6.30;99.90;;;;;;4145452;28;20068;-63
2024/02/09 09:20:02;;;;;;;33.40;18.60;;;6.20;99.90;;;;;;4146309;28;20018;-64
2024/02/09 09:22:04;;;;;;;29.00;17.80;;;6.30;99.90;;;;;;4145761;28;20014;-60
2024/02/09 09:24:07;;;;;;;31.37;18.30;;;6.30;99.90;;;;;;4145997;28;20489;-63
2024/02/09 09:26:09;;;;;;;31.07;17.00;;;6.40;99.90;;;;;;4146436;28;20081;-62
2024/02/09 09:28:12;;;;;;;29.93;16.53;;;6.40;99.90;;;;;;4145745;28;20110;-60
2024/02/09 09:30:17;;;;;;;29.40;16.43;;;6.50;99.90;;;;;;4146311;28;20045;-60
2024/02/09 09:32:20;;;;;;;25.93;16.30;;;6.50;99.90;;;;;;4145314;28;20142;-59
2024/02/09 09:34:21;;;;;;;27.30;16.20;;;6.60;99.90;;;;;;4146617;28;20104;-63
2024/02/09 09:36:22;;;;;;;27.90;16.13;;;6.70;99.90;;;;;;4145179;28;20038;-63
2024/02/09 09:38:23;;;;;;;29.97;17.37;;;6.80;99.90;;;;;;4146199;28;20142;-61
2024/02/09 09:40:31;;;;;;;31.53;17.83;;;6.90;99.90;;;;;;4145126;28;20092;-62
2024/02/09 09:42:32;;;;;;;31.97;18.30;;;6.90;99.90;;;;;;4146453;28;20441;-62
2024/02/09 09:44:34;;;;;;;30.57;17.90;;;6.90;99.90;;;;;;4145195;28;20033;-62
2024/02/09 09:46:42;;;;;;;29.40;16.67;;;6.90;99.90;;;;;;4146607;28;20493;-61
2024/02/09 09:48:44;;;;;;;29.47;16.40;;;7.00;99.90;;;;;;4144941;28;20084;-65
2024/02/09 09:50:46;;;;;;;31.20;16.27;;;7.10;99.90;;;;;;4146008;28;20026;-61
2024/02/09 09:52:54;;;;;;;30.47;17.30;;;7.10;99.90;;;;;;4145043;28;20041;-62
2024/02/09 09:54:59;;;;;;;33.97;18.70;;;7.10;99.90;;;;;;4145994;28;20045;-62
2024/02/09 09:57:02;;;;;;;30.77;18.33;;;7.20;99.90;;;;;;4145073;28;20029;-63
2024/02/09 09:59:04;;;;;;;32.57;18.07;;;7.20;99.90;;;;;;4145813;28;20030;-60
2024/02/09 10:01:09;;;;;;;30.73;18.33;;;7.30;99.90;;;;;;4145227;28;20416;-61
2024/02/09 10:03:10;;;;;;;35.70;18.90;;;7.50;99.90;;;;;;4145922;28;20042;-62
2024/02/09 10:05:11;;;;;;;48.43;21.13;;;7.60;99.90;;;;;;4145301;28;20091;-60
2024/02/09 10:07:19;;;;;;;45.77;20.23;;;7.70;99.90;;;;;;4145083;28;20042;-61
2024/02/09 10:09:20;;;;;;;36.03;18.87;;;7.80;99.90;;;;;;4145107;28;20038;-59
2024/02/09 10:11:22;;;;;;;40.30;18.07;;;7.90;99.90;;;;;;4144012;28;20034;-63
2024/02/09 10:13:25;;;;;;;32.23;17.73;;;7.90;99.90;;;;;;4145921;28;20050;-61
2024/02/09 10:15:26;;;;;;;36.23;18.47;;;8.00;99.90;;;;;;4144444;28;20042;-59
2024/02/09 10:17:28;;;;;;;42.47;21.53;;;8.10;99.90;;;;;;4146141;28;20046;-60
2024/02/09 10:19:33;;;;;;;39.53;22.53;;;8.20;99.90;;;;;;4142731;28;20108;-60
2024/02/09 10:21:34;;;;;;;35.10;21.73;;;8.20;99.90;;;;;;4145655;28;20045;-60
2024/02/09 10:23:36;;;;;;;39.93;19.90;;;8.20;99.90;;;;;;4144586;28;20121;-60
2024/02/09 10:25:39;;;;;;;33.73;18.00;;;8.20;99.90;;;;;;4145913;28;20502;-59
2024/02/09 10:27:42;;;;;;;27.13;15.87;;;8.20;99.90;;;;;;4144717;28;20092;-57
2024/02/09 10:29:43;;;;;;;24.47;16.20;;;8.20;99.90;;;;;;4145598;28;20065;-60
2024/02/09 10:31:45;;;;;;;31.43;17.70;;;8.20;99.90;;;;;;4144404;28;20030;-60
2024/02/09 10:33:49;;;;;;;26.70;16.40;;;8.20;99.90;;;;;;4145407;28;20096;-62
2024/02/09 10:35:57;;;;;;;26.70;17.23;;;8.30;99.90;;;;;;4144514;28;20038;-60
2024/02/09 10:37:58;;;;;;;24.97;15.37;;;8.40;99.90;;;;;;4145336;28;20092;-62
2024/02/09 10:40:00;;;;;;;29.60;16.10;;;8.40;99.90;;;;;;4144952;28;20042;-61
2024/02/09 10:42:04;;;;;;;24.27;14.73;;;8.50;99.90;;;;;;4144799;28;20026;-61
2024/02/09 10:44:05;;;;;;;23.27;13.87;;;8.50;99.90;;;;;;4144355;28;20080;-61
2024/02/09 10:46:06;;;;;;;24.73;14.80;;;8.60;99.90;;;;;;4144771;28;20029;-60
2024/02/09 10:48:12;;;;;;;28.57;14.30;;;8.70;99.90;;;;;;4145199;28;20037;-61
2024/02/09 10:50:15;;;;;;;24.33;14.43;;;8.70;99.90;;;;;;4144101;28;20037;-60
2024/02/09 10:52:18;;;;;;;24.57;14.83;;;8.80;99.90;;;;;;4145190;28;20536;-65
2024/02/09 10:54:38;;;;;;;26.47;13.10;;;8.90;99.90;;;;;;4144077;28;20469;-65
2024/02/09 10:56:40;;;;;;;22.30;13.93;;;8.90;99.90;;;;;;4145184;28;20033;-60
2024/02/09 10:58:42;;;;;;;24.20;13.70;;;8.90;99.90;;;;;;4143772;28;20033;-60
2024/02/09 11:00:43;;;;;;;20.57;12.80;;;9.00;99.90;;;;;;4145032;28;20022;-62
2024/02/09 11:02:44;;;;;;;22.60;13.63;;;9.00;99.90;;;;;;4144036;28;20091;-58
2024/02/09 11:04:46;;;;;;;24.53;14.43;;;9.10;99.90;;;;;;4145425;28;20157;-62
2024/02/09 11:06:49;;;;;;;24.37;13.73;;;9.10;99.90;;;;;;4143832;28;20076;-60
2024/02/09 11:08:51;;;;;;;26.87;13.90;;;9.10;99.90;;;;;;4145084;28;20099;-61
2024/02/09 11:10:58;;;;;;;26.83;14.97;;;9.00;99.90;;;;;;4143911;28;20187;-60
2024/02/09 11:13:00;;;;;;;23.97;13.90;;;9.00;99.90;;;;;;4145100;28;20084;-60
2024/02/09 11:15:14;;;;;;;20.37;13.87;;;9.10;99.90;;;;;;4143686;28;20111;-62
2024/02/09 11:17:20;;;;;;;20.67;14.00;;;9.10;99.90;;;;;;4145113;28;20501;-59
2024/02/09 11:19:22;;;;;;;20.90;12.80;;;9.20;99.90;;;;;;4143735;28;20030;-57
2024/02/09 11:21:26;;;;;;;23.07;12.80;;;9.20;99.90;;;;;;4145300;28;20088;-60
2024/02/09 11:23:30;;;;;;;22.30;13.57;;;9.30;99.90;;;;;;4147234;28;20088;-60
2024/02/09 11:25:34;;;;;;;20.93;12.73;;;9.30;99.90;;;;;;4148017;28;20088;-60
2024/02/09 11:27:36;;;;;;;20.67;12.43;;;9.30;99.90;;;;;;4147381;28;20080;-59
2024/02/09 11:29:37;;;;;;;27.93;13.53;;;9.40;99.90;;;;;;4147694;28;20034;-64
2024/02/09 11:31:40;;;;;;;25.10;13.97;;;9.40;99.90;;;;;;4147897;28;20038;-60
2024/02/09 11:33:41;;;;;;;22.40;13.37;;;9.40;99.90;;;;;;4147507;28;20387;-59
2024/02/09 11:35:48;;;;;;;25.80;13.93;;;9.50;99.90;;;;;;4147651;28;20058;-62
2024/02/09 11:37:49;;;;;;;28.00;13.87;;;9.50;99.90;;;;;;4147001;28;20030;-60
2024/02/09 11:39:50;;;;;;;22.23;13.83;;;9.50;99.90;;;;;;4147894;28;20137;-61
2024/02/09 11:41:52;;;;;;;26.00;14.17;;;9.50;99.90;;;;;;4147006;28;20026;-61
2024/02/09 11:43:54;;;;;;;21.70;13.43;;;9.50;99.90;;;;;;4148150;28;20038;-59
2024/02/09 11:45:55;;;;;;;25.83;15.27;;;9.50;99.90;;;;;;4147736;28;20038;-61
2024/02/09 11:47:57;;;;;;;21.87;12.97;;;9.50;99.90;;;;;;4148238;28;20053;-60
2024/02/09 11:49:58;;;;;;;23.23;13.80;;;9.40;99.90;;;;;;4146727;28;20073;-62
2024/02/09 11:52:04;;;;;;;24.63;14.00;;;9.40;99.90;;;;;;4148493;28;20050;-61
2024/02/09 11:54:09;;;;;;;25.47;13.77;;;9.40;99.90;;;;;;4146820;28;20421;-60
2024/02/09 11:56:10;;;;;;;26.43;14.27;;;9.40;99.90;;;;;;4146668;28;20050;-60
2024/02/09 11:58:12;;;;;;;29.40;14.80;;;9.40;99.90;;;;;;4146757;28;20018;-59
2024/02/09 12:00:14;;;;;;;25.20;13.93;;;9.40;99.90;;;;;;4147676;28;20092;-61
2024/02/09 12:02:17;;;;;;;32.27;15.63;;;9.40;99.90;;;;;;4146768;28;20470;-60
2024/02/09 12:04:18;;;;;;;29.23;15.67;;;9.50;99.90;;;;;;4147646;28;20129;-63
2024/02/09 12:06:21;;;;;;;34.73;16.27;;;9.50;99.90;;;;;;4147358;28;20018;-61
2024/02/09 12:08:23;;;;;;;31.03;16.87;;;9.40;99.90;;;;;;4147271;28;20046;-61
2024/02/09 12:10:25;;;;;;;27.70;15.33;;;9.40;99.90;;;;;;4147335;28;20231;-60
2024/02/09 12:12:26;;;;;;;28.63;15.53;;;9.40;99.90;;;;;;4146742;28;20041;-64
2024/02/09 12:14:27;;;;;;;31.27;15.77;;;9.40;99.90;;;;;;4147126;28;20057;-65
2024/02/09 12:16:29;;;;;;;29.40;16.07;;;9.40;99.90;;;;;;4146847;28;20060;-61
2024/02/09 12:18:30;;;;;;;31.07;17.00;;;9.40;99.90;;;;;;4147703;28;20042;-61
2024/02/09 12:20:32;;;;;;;38.67;18.07;;;9.40;99.90;;;;;;4146106;28;20030;-55